createdAt,value
2019-03-25T00:02:09.178Z,494.03
2019-03-25T01:13:30.786Z,78.00
2019-03-25T01:18:37.085Z,59.80
2019-03-25T01:23:42.923Z,52.33
2019-03-25T01:28:48.112Z,46.53
2019-03-25T01:38:59.429Z,42.08
2019-03-25T01:44:05.500Z,39.75
2019-03-25T01:59:23.752Z,38.65
2019-03-25T02:19:47.750Z,136.90
2019-03-25T02:24:54.477Z,407.05
2019-03-25T02:30:00.402Z,170.32
2019-03-25T02:35:06.221Z,99.80
2019-03-25T02:40:12.106Z,71.77
2019-03-25T02:45:19.906Z,52.87
2019-03-25T03:00:39.063Z,36.77
2019-03-25T03:05:45.009Z,34.60
2019-03-25T03:10:50.984Z,34.10
2019-03-25T03:15:56.886Z,32.10
2019-03-25T03:21:02.851Z,31.37
2019-03-25T03:26:08.954Z,31.97
2019-03-25T03:31:14.795Z,29.10
2019-03-25T03:56:44.279Z,27.15
2019-03-25T04:13:09.843Z,24.80
2019-03-25T04:18:18.367Z,24.10
2019-03-25T04:23:23.761Z,23.40
2019-03-25T04:28:29.477Z,23.27
2019-03-25T04:38:40.609Z,22.30
2019-03-25T04:43:46.282Z,19.43
2019-03-25T04:48:51.842Z,20.37
2019-03-25T04:53:57.697Z,21.07
2019-03-25T04:59:05.409Z,20.43
2019-03-25T05:04:10.777Z,20.23
2019-03-25T05:09:16.739Z,20.43
2019-03-25T05:14:22.504Z,19.50
2019-03-25T05:19:28.023Z,19.05
2019-03-25T05:24:33.624Z,18.03
2019-03-25T05:29:39.296Z,18.20
2019-03-25T05:34:45.022Z,17.27
2019-03-25T05:39:50.726Z,17.43
2019-03-25T05:44:56.493Z,16.97
2019-03-25T05:50:02.277Z,16.73
2019-03-25T05:55:07.810Z,16.48
2019-03-25T06:00:13.682Z,14.87
2019-03-25T06:05:19.446Z,13.58
2019-03-25T06:10:25.110Z,14.60
2019-03-25T06:15:30.671Z,14.18
2019-03-25T06:20:36.314Z,13.78
2019-03-25T06:25:41.974Z,14.00
2019-03-25T06:30:47.660Z,12.73
2019-03-25T06:35:53.510Z,13.20
2019-03-25T06:40:59.030Z,12.97
2019-03-25T06:46:04.754Z,13.00
2019-03-25T06:51:10.828Z,12.17
2019-03-25T06:56:17.521Z,11.73
2019-03-25T07:01:23.714Z,11.00
2019-03-25T07:06:29.464Z,10.57
2019-03-25T07:11:35.051Z,11.07
2019-03-25T07:16:40.690Z,10.93
2019-03-25T07:26:51.812Z,9.63
2019-03-25T07:31:58.495Z,11.50
2019-03-25T07:37:04.027Z,9.40
2019-03-25T07:47:35.963Z,10.23
2019-03-25T07:52:41.573Z,10.93
2019-03-25T07:57:48.511Z,10.25
2019-03-25T08:02:54.389Z,9.57
2019-03-25T08:13:05.871Z,9.03
2019-03-25T08:18:11.585Z,8.93
2019-03-25T08:23:17.348Z,8.93
2019-03-25T08:28:22.991Z,18.97
2019-03-25T08:33:29.301Z,34.07
2019-03-25T08:43:40.414Z,126.53
2019-03-25T08:48:46.027Z,93.90
2019-03-25T08:53:51.638Z,42.78
2019-03-25T09:04:02.862Z,12.20
2019-03-25T09:09:08.630Z,12.33
2019-03-25T09:14:14.297Z,12.60
2019-03-25T09:19:19.851Z,12.17
2019-03-25T09:24:25.828Z,10.97
2019-03-25T09:29:31.501Z,10.73
2019-03-25T09:34:37.032Z,11.47
2019-03-25T09:39:42.713Z,11.67
2019-03-25T09:44:48.480Z,11.70
2019-03-25T09:49:54.274Z,10.40
2019-03-25T09:54:59.814Z,10.88
2019-03-25T10:00:06.027Z,10.83
2019-03-25T10:05:11.652Z,11.37
2019-03-25T10:15:22.872Z,11.03
2019-03-25T10:20:29.471Z,9.93
2019-03-25T10:25:35.279Z,9.40
2019-03-25T10:30:40.815Z,10.40
2019-03-25T10:35:46.658Z,10.83
2019-03-25T10:45:57.680Z,9.20
2019-03-25T10:56:08.805Z,9.10
2019-03-25T11:01:15.403Z,8.70
2019-03-25T11:06:21.019Z,8.93
2019-03-25T11:11:26.721Z,8.27
2019-03-25T11:21:37.827Z,7.90
2019-03-25T11:26:43.721Z,7.87
2019-03-25T11:31:49.462Z,8.07
2019-03-25T11:42:00.583Z,7.40
2019-03-25T11:47:06.286Z,6.80
2019-03-25T11:52:11.811Z,6.80
2019-03-25T11:57:17.470Z,6.07
2019-03-25T12:07:28.707Z,6.07
2019-03-25T12:12:34.463Z,5.90
2019-03-25T12:22:45.795Z,5.67
2019-03-25T12:27:51.864Z,5.57
2019-03-25T12:33:04.045Z,4.90
2019-03-25T12:43:10.593Z,4.53
2019-03-25T12:48:16.281Z,4.57
2019-03-25T12:53:21.823Z,4.43
2019-03-25T12:58:28.029Z,4.13
2019-03-25T13:03:33.669Z,4.30
2019-03-25T13:13:44.783Z,4.00
2019-03-25T13:18:50.654Z,3.43
2019-03-25T13:23:56.315Z,3.63
2019-03-25T13:29:02.674Z,3.93
2019-03-25T13:34:08.461Z,3.80
2019-03-25T13:39:14.051Z,3.30
2019-03-25T13:44:19.699Z,3.30
2019-03-25T13:49:40.295Z,3.23
2019-03-25T13:54:45.856Z,2.97
2019-03-25T13:59:51.521Z,2.93
2019-03-25T14:04:57.288Z,2.97
2019-03-25T14:10:02.903Z,2.80
2019-03-25T14:15:09.003Z,2.73
2019-03-25T14:30:27.277Z,1.90
2019-03-25T14:35:33.569Z,6.10
2019-03-25T14:40:39.416Z,102.13
2019-03-25T14:45:45.581Z,96.57
2019-03-25T14:50:51.549Z,100.17
2019-03-25T14:55:57.610Z,143.67
2019-03-25T15:01:03.473Z,140.27
2019-03-25T15:06:11.453Z,109.12
2019-03-25T15:11:17.373Z,127.53
2019-03-25T15:16:23.132Z,101.65
2019-03-25T15:21:28.985Z,64.75
2019-03-25T15:26:35.894Z,215.17
2019-03-25T15:36:47.837Z,251.03
2019-03-25T15:41:55.301Z,250.83
2019-03-25T15:47:01.089Z,128.80
2019-03-25T15:52:07.724Z,40.17
2019-03-25T16:02:19.539Z,143.53
2019-03-25T16:07:27.956Z,63.97
2019-03-25T16:12:33.723Z,137.53
2019-03-25T16:17:39.491Z,98.83
2019-03-25T16:22:46.475Z,163.20
2019-03-25T16:27:52.424Z,151.73
2019-03-25T16:32:57.822Z,144.90
2019-03-25T16:38:03.782Z,115.73
2019-03-25T16:43:09.655Z,68.77
2019-03-25T16:48:15.428Z,36.17
2019-03-25T16:58:26.692Z,8.97
2019-03-25T17:03:32.412Z,6.97
2019-03-25T17:13:43.538Z,4.20
2019-03-25T17:18:49.459Z,3.47
2019-03-25T17:23:54.937Z,3.40
2019-03-25T17:29:00.422Z,3.90
2019-03-25T19:55:31.555Z,182.35
2019-03-25T20:00:37.341Z,77.75
2019-03-25T20:05:42.973Z,58.98
